Time;durP1;ratioP1;P1;durP2;ratioP2;P2;SDS_P1;SDS_P2;PMS_P1;PMS_P2;Temp;Humidity;BMP_temperature;BMP_pressure;BME280_temperature;BME280_humidity;BME280_pressure;Samples;Min_cycle;Max_cycle;Signal;HPM_P1;HPM_P2
2023/09/02 04:05:01;;;;;;;1.37;1.23;;;14.10;99.90;;;;;;5941831;22;20453;-65
2023/09/02 04:07:26;;;;;;;2.37;2.17;;;14.10;99.90;;;;;;5029440;28;20560;-65
2023/09/02 04:09:53;;;;;;;1.33;1.23;;;14.10;99.90;;;;;;5033613;28;20483;-65
2023/09/02 04:12:18;;;;;;;1.47;1.37;;;14.10;99.90;;;;;;5033533;28;20185;-65
2023/09/02 04:14:44;;;;;;;1.97;1.83;;;14.20;99.90;;;;;;5033067;28;20454;-65
2023/09/02 04:17:12;;;;;;;1.30;1.20;;;14.10;99.90;;;;;;5015448;28;20235;-65
2023/09/02 04:19:39;;;;;;;2.10;1.97;;;14.10;99.90;;;;;;5016439;28;20162;-65
2023/09/02 04:22:04;;;;;;;2.97;2.23;;;14.10;99.90;;;;;;5033695;28;20451;-65
2023/09/02 04:24:30;;;;;;;2.40;2.23;;;14.10;99.90;;;;;;5033015;28;20416;-66
2023/09/02 04:26:57;;;;;;;2.03;1.80;;;14.10;99.90;;;;;;5033361;28;20178;-66
2023/09/02 04:29:23;;;;;;;1.47;1.37;;;14.10;99.90;;;;;;5033328;28;20170;-66
2023/09/02 04:31:48;;;;;;;1.73;1.63;;;14.10;99.90;;;;;;5033189;28;20415;-65
2023/09/02 04:34:14;;;;;;;2.93;1.60;;;14.10;99.90;;;;;;5032550;28;20169;-66
2023/09/02 04:36:39;;;;;;;2.83;1.70;;;14.00;99.90;;;;;;5033108;28;20201;-66
2023/09/02 04:39:06;;;;;;;2.70;1.57;;;14.00;99.90;;;;;;5037321;28;20222;-66
2023/09/02 04:41:32;;;;;;;3.40;1.90;;;14.00;99.90;;;;;;5037546;28;20173;-66
2023/09/02 04:43:57;;;;;;;1.67;1.40;;;14.00;99.90;;;;;;5036934;28;20475;-66
2023/09/02 04:46:24;;;;;;;1.43;1.33;;;14.00;99.90;;;;;;5036841;28;20221;-66
2023/09/02 04:48:50;;;;;;;1.30;1.20;;;14.00;99.90;;;;;;5036984;28;20177;-66
2023/09/02 04:51:15;;;;;;;1.87;1.77;;;14.00;99.90;;;;;;5037116;28;20412;-66
2023/09/02 04:53:41;;;;;;;1.30;1.20;;;14.00;99.90;;;;;;5036810;28;20213;-66
2023/09/02 04:56:07;;;;;;;1.07;1.07;;;14.00;99.90;;;;;;5036943;28;20855;-66
2023/09/02 04:58:33;;;;;;;1.67;1.57;;;14.00;99.90;;;;;;5037153;28;20187;-66
2023/09/02 05:01:09;;;;;;;1.60;1.50;;;14.00;99.90;;;;;;5036702;28;20416;-66
2023/09/02 05:03:35;;;;;;;1.77;1.67;;;14.00;99.90;;;;;;5036462;28;20201;-66
2023/09/02 05:06:01;;;;;;;1.33;1.33;;;14.00;99.90;;;;;;5036392;28;20448;-66
2023/09/02 05:08:31;;;;;;;1.30;1.20;;;14.10;99.90;;;;;;5036695;28;20169;-66
2023/09/02 05:10:57;;;;;;;2.10;1.90;;;14.10;99.90;;;;;;5036867;28;20182;-66
2023/09/02 05:13:22;;;;;;;1.30;1.20;;;14.10;99.90;;;;;;5036734;28;20412;-66
2023/09/02 05:15:51;;;;;;;1.27;1.17;;;14.10;99.90;;;;;;5036146;28;20194;-65
2023/09/02 05:18:17;;;;;;;1.40;1.30;;;14.10;99.90;;;;;;5036503;28;20182;-66
2023/09/02 05:20:42;;;;;;;2.00;1.57;;;14.10;99.90;;;;;;5036412;28;20519;-66
2023/09/02 05:23:09;;;;;;;1.63;1.60;;;14.10;99.90;;;;;;5035925;28;20213;-65
2023/09/02 05:25:34;;;;;;;1.70;1.60;;;14.20;99.90;;;;;;5035855;28;20197;-65
2023/09/02 05:28:00;;;;;;;1.80;1.70;;;14.30;99.90;;;;;;5036437;28;20755;-65
2023/09/02 05:30:26;;;;;;;1.63;1.53;;;14.30;99.90;;;;;;5036433;28;20212;-65
2023/09/02 05:32:51;;;;;;;1.40;1.30;;;14.40;99.90;;;;;;5036184;28;20178;-65
2023/09/02 05:35:17;;;;;;;1.47;1.37;;;14.50;99.90;;;;;;5035841;28;20194;-65
2023/09/02 05:37:42;;;;;;;1.23;1.17;;;14.50;99.90;;;;;;5036210;28;20178;-65
2023/09/02 05:40:10;;;;;;;1.40;1.30;;;14.60;99.90;;;;;;5034840;28;20273;-65
2023/09/02 05:42:35;;;;;;;1.80;1.70;;;14.70;99.90;;;;;;5035725;28;20276;-65
2023/09/02 05:45:01;;;;;;;1.97;1.87;;;14.80;99.90;;;;;;5035552;28;20534;-65
2023/09/02 05:47:27;;;;;;;1.10;1.10;;;14.90;99.90;;;;;;5035857;28;20193;-66
2023/09/02 05:49:52;;;;;;;1.50;1.40;;;15.00;99.90;;;;;;5034939;28;20178;-66
2023/09/02 05:52:18;;;;;;;1.40;1.30;;;15.00;99.90;;;;;;5018116;28;20528;-65
2023/09/02 05:54:43;;;;;;;1.20;1.00;;;15.10;99.90;;;;;;5035494;28;20281;-67
2023/09/02 05:57:09;;;;;;;1.10;1.10;;;15.10;99.90;;;;;;5035873;28;20178;-64
2023/09/02 05:59:34;;;;;;;1.83;1.70;;;15.10;99.90;;;;;;5035805;28;20186;-66
2023/09/02 06:02:00;;;;;;;1.57;1.40;;;15.20;99.90;;;;;;5035564;28;20183;-66
2023/09/02 06:04:25;;;;;;;2.10;2.00;;;15.30;99.90;;;;;;5035097;28;20174;-66
2023/09/02 06:06:51;;;;;;;2.27;1.80;;;15.40;99.90;;;;;;5035518;28;20644;-66
2023/09/02 06:09:17;;;;;;;2.43;2.23;;;15.50;99.90;;;;;;5035654;28;20205;-66
2023/09/02 06:11:42;;;;;;;2.00;1.90;;;15.60;99.90;;;;;;5035544;28;20206;-66
2023/09/02 06:14:08;;;;;;;1.80;1.70;;;15.70;99.90;;;;;;5035004;28;20187;-66
2023/09/02 06:16:34;;;;;;;2.33;2.10;;;15.80;99.90;;;;;;5035474;28;20184;-66
2023/09/02 06:18:59;;;;;;;2.10;2.00;;;16.00;99.90;;;;;;5033488;28;20191;-66
2023/09/02 06:21:25;;;;;;;2.30;2.10;;;16.10;99.90;;;;;;5035210;28;20176;-66
2023/09/02 06:23:50;;;;;;;2.10;1.70;;;16.20;99.90;;;;;;5034975;28;20657;-66
2023/09/02 06:26:16;;;;;;;2.53;1.67;;;16.20;99.90;;;;;;5035234;28;20208;-66
2023/09/02 06:28:42;;;;;;;1.80;1.70;;;16.30;99.90;;;;;;5035109;28;20168;-66
2023/09/02 06:31:10;;;;;;;2.03;1.90;;;16.50;99.90;;;;;;5035178;28;20221;-66
2023/09/02 06:33:36;;;;;;;2.13;2.00;;;16.50;99.90;;;;;;5034403;28;20745;-66
2023/09/02 06:36:19;;;;;;;2.40;2.20;;;16.60;99.90;;;;;;5034743;28;20474;-66
2023/09/02 06:38:44;;;;;;;3.20;3.00;;;16.70;99.90;;;;;;5027258;28;20181;-67
2023/09/02 06:41:11;;;;;;;3.10;2.00;;;16.80;99.90;;;;;;5034677;28;20419;-66
2023/09/02 06:43:38;;;;;;;2.90;2.70;;;17.00;99.90;;;;;;5039523;28;20208;-66
2023/09/02 06:46:15;;;;;;;2.60;2.40;;;17.00;99.90;;;;;;5034645;28;20414;-65
2023/09/02 06:48:40;;;;;;;2.20;1.97;;;17.10;99.90;;;;;;5021897;28;20413;-67
2023/09/02 06:51:06;;;;;;;1.97;1.80;;;17.20;99.90;;;;;;5033827;28;20417;-65
2023/09/02 06:53:32;;;;;;;5.73;2.23;;;17.30;99.90;;;;;;5015628;28;20266;-67
2023/09/02 06:55:57;;;;;;;4.37;2.43;;;17.40;99.90;;;;;;5034385;28;20186;-66
2023/09/02 06:58:23;;;;;;;9.83;1.73;;;17.50;99.90;;;;;;5034707;28;20268;-66
2023/09/02 07:00:48;;;;;;;1.77;1.67;;;17.60;99.90;;;;;;5034204;28;20202;-66
2023/09/02 07:03:14;;;;;;;2.33;2.13;;;17.60;99.90;;;;;;5034412;28;20243;-67
2023/09/02 07:05:40;;;;;;;1.60;1.50;;;17.70;99.90;;;;;;5033043;28;20222;-65
2023/09/02 07:08:07;;;;;;;2.37;1.70;;;17.80;99.90;;;;;;5033972;28;20230;-67
2023/09/02 07:10:32;;;;;;;1.70;1.60;;;17.80;99.90;;;;;;5034369;28;20380;-67
2023/09/02 07:12:58;;;;;;;1.60;1.50;;;17.90;99.90;;;;;;5034589;28;20178;-68
2023/09/02 07:15:23;;;;;;;1.60;1.50;;;18.00;99.90;;;;;;5033446;28;20587;-68
2023/09/02 07:17:49;;;;;;;1.50;1.40;;;18.10;99.90;;;;;;5033441;28;20256;-68
2023/09/02 07:20:15;;;;;;;1.60;1.50;;;18.30;99.90;;;;;;5034211;28;20186;-68
2023/09/02 07:22:40;;;;;;;1.10;1.10;;;18.50;99.90;;;;;;5033638;28;20632;-71
2023/09/02 07:25:06;;;;;;;1.50;1.40;;;18.60;99.90;;;;;;5033333;28;20244;-65
2023/09/02 07:27:32;;;;;;;1.80;1.70;;;18.90;99.90;;;;;;5034548;28;20667;-69
2023/09/02 07:30:01;;;;;;;1.83;1.27;;;19.10;99.90;;;;;;5033428;28;20425;-69
2023/09/02 07:32:27;;;;;;;0.90;0.90;;;19.20;99.90;;;;;;5033442;28;20391;-68
2023/09/02 07:34:52;;;;;;;2.13;1.23;;;19.30;99.90;;;;;;5033364;28;20400;-68
2023/09/02 07:37:18;;;;;;;1.30;1.20;;;19.50;99.90;;;;;;5033731;28;20178;-69
2023/09/02 07:39:44;;;;;;;0.83;0.83;;;19.80;99.90;;;;;;5033577;28;20171;-68
2023/09/02 07:42:09;;;;;;;1.30;1.20;;;20.10;99.90;;;;;;5033046;28;20676;-68
2023/09/02 07:44:35;;;;;;;1.10;1.00;;;20.50;99.90;;;;;;5033331;28;20166;-69
2023/09/02 07:47:00;;;;;;;0.93;0.90;;;20.90;99.90;;;;;;5032871;28;20200;-70
2023/09/02 07:49:26;;;;;;;2.00;1.50;;;21.30;99.90;;;;;;5033933;28;20174;-70
2023/09/02 07:51:51;;;;;;;1.60;1.20;;;21.70;99.90;;;;;;5033597;28;20521;-67
2023/09/02 07:54:17;;;;;;;1.40;1.30;;;22.30;99.90;;;;;;5033165;28;20186;-69
2023/09/02 07:56:43;;;;;;;1.70;1.60;;;23.20;99.90;;;;;;5032453;28;20193;-70
2023/09/02 07:59:08;;;;;;;1.63;1.53;;;24.40;99.90;;;;;;5033316;28;20422;-69
2023/09/02 08:01:34;;;;;;;1.40;1.30;;;25.80;99.90;;;;;;5033238;28;20173;-67
2023/09/02 08:04:00;;;;;;;1.10;1.10;;;27.00;99.90;;;;;;5032453;28;20206;-70
2023/09/02 08:06:25;;;;;;;1.10;1.00;;;28.00;99.90;;;;;;5032987;28;20214;-70
2023/09/02 08:08:53;;;;;;;1.40;1.30;;;28.70;99.60;;;;;;5033037;28;20174;-69
2023/09/02 08:11:18;;;;;;;1.40;1.30;;;29.40;98.80;;;;;;5014704;28;20257;-71
2023/09/02 08:13:44;;;;;;;1.27;1.17;;;29.80;97.80;;;;;;5032822;28;20519;-70
2023/09/02 08:16:10;;;;;;;1.20;1.10;;;30.30;95.40;;;;;;5033315;28;20197;-68
2023/09/02 08:18:35;;;;;;;1.80;1.70;;;30.60;95.30;;;;;;5032124;28;20463;-68
2023/09/02 08:21:07;;;;;;;1.30;1.30;;;30.90;94.20;;;;;;5033172;28;20181;-68
2023/09/02 08:23:32;;;;;;;1.00;1.00;;;31.10;94.80;;;;;;5032520;28;20563;-69
2023/09/02 08:25:58;;;;;;;1.80;1.70;;;31.20;93.50;;;;;;5032885;28;20536;-71
2023/09/02 08:28:23;;;;;;;1.60;1.50;;;31.30;93.80;;;;;;5033165;28;20293;-69
2023/09/02 08:30:49;;;;;;;1.67;1.57;;;31.50;93.30;;;;;;5032993;28;20639;-69
2023/09/02 08:33:14;;;;;;;1.47;1.37;;;31.70;93.20;;;;;;5033200;28;20259;-65
2023/09/02 08:35:40;;;;;;;1.60;1.50;;;31.90;92.70;;;;;;5032419;28;20206;-70
2023/09/02 08:38:05;;;;;;;1.40;1.30;;;31.90;91.70;;;;;;5051797;28;20181;-68
2023/09/02 08:40:32;;;;;;;1.40;1.20;;;32.10;92.10;;;;;;5033431;28;20583;-67
2023/09/02 08:43:01;;;;;;;1.60;1.50;;;32.10;91.90;;;;;;5032499;28;20201;-70
2023/09/02 08:45:29;;;;;;;1.20;1.20;;;32.30;91.40;;;;;;5032636;28;20425;-68
2023/09/02 08:48:00;;;;;;;1.50;1.50;;;32.40;91.70;;;;;;5032441;28;20447;-69
2023/09/02 08:50:28;;;;;;;1.47;1.40;;;32.70;90.60;;;;;;5032999;28;20788;-70
2023/09/02 08:52:54;;;;;;;1.60;1.50;;;32.80;91.00;;;;;;5032928;28;20455;-70
2023/09/02 08:55:21;;;;;;;1.40;1.30;;;32.80;90.30;;;;;;5032409;28;20516;-68
2023/09/02 08:57:47;;;;;;;1.80;1.70;;;32.70;90.00;;;;;;5033208;28;20492;-72
2023/09/02 09:00:13;;;;;;;1.20;1.20;;;32.70;90.10;;;;;;5014330;28;20463;-70
2023/09/02 09:02:40;;;;;;;2.30;1.77;;;33.00;90.70;;;;;;5031880;28;20461;-70
2023/09/02 09:05:08;;;;;;;1.50;1.40;;;33.80;89.10;;;;;;5032445;28;20182;-68
2023/09/02 09:07:36;;;;;;;1.27;1.17;;;34.60;87.10;;;;;;5032629;28;20996;-71
2023/09/02 09:10:02;;;;;;;1.40;1.33;;;35.00;84.90;;;;;;5032696;28;20412;-69
2023/09/02 09:12:29;;;;;;;1.10;1.10;;;35.50;83.90;;;;;;5032429;28;20416;-72
2023/09/02 09:14:58;;;;;;;1.47;1.37;;;35.80;81.80;;;;;;5032190;28;20515;-71
2023/09/02 09:17:25;;;;;;;1.53;1.43;;;36.10;81.90;;;;;;5032707;28;20405;-70
2023/09/02 09:19:52;;;;;;;2.20;1.40;;;36.50;81.50;;;;;;5032907;28;20944;-69
2023/09/02 09:22:18;;;;;;;1.23;1.13;;;36.80;79.20;;;;;;5032265;28;20459;-70
2023/09/02 09:24:44;;;;;;;1.60;1.50;;;37.20;78.20;;;;;;5037185;28;20433;-67
2023/09/02 09:27:10;;;;;;;1.10;1.10;;;37.60;76.20;;;;;;5036197;28;20167;-70
2023/09/02 09:29:40;;;;;;;1.60;1.50;;;37.70;74.40;;;;;;5036137;28;20537;-69
2023/09/02 09:32:13;;;;;;;2.27;1.50;;;37.50;75.20;;;;;;5036233;28;20416;-68
2023/09/02 09:34:41;;;;;;;1.30;1.30;;;37.80;73.80;;;;;;5035838;28;20433;-67
2023/09/02 09:37:08;;;;;;;1.70;1.60;;;38.20;73.70;;;;;;5035655;28;20421;-66
2023/09/02 09:39:51;;;;;;;1.43;1.43;;;38.50;72.30;;;;;;5035707;28;20756;-67
2023/09/02 09:42:17;;;;;;;1.47;1.43;;;38.20;71.30;;;;;;5036564;28;20563;-67
2023/09/02 09:45:00;;;;;;;1.53;1.40;;;37.90;72.20;;;;;;5043049;28;20472;-65
2023/09/02 09:47:26;;;;;;;1.30;1.30;;;37.90;71.50;;;;;;5035692;28;20174;-64
2023/09/02 09:49:52;;;;;;;1.73;1.70;;;38.10;72.00;;;;;;5035440;28;20419;-66
2023/09/02 09:52:19;;;;;;;1.10;1.10;;;38.00;70.60;;;;;;5035704;28;20544;-64
2023/09/02 09:54:47;;;;;;;1.53;1.43;;;38.20;69.70;;;;;;5035342;28;20818;-65
2023/09/02 09:57:35;;;;;;;1.40;1.30;;;38.30;70.00;;;;;;5035881;28;20819;-66
2023/09/02 10:00:01;;;;;;;1.40;1.40;;;38.60;70.00;;;;;;5035781;28;20960;-65
2023/09/02 10:02:26;;;;;;;2.53;1.30;;;38.80;68.20;;;;;;5035301;28;20425;-66
2023/09/02 10:04:53;;;;;;;1.20;1.20;;;38.80;67.80;;;;;;5035049;28;20197;-67
2023/09/02 10:07:26;;;;;;;1.30;1.30;;;39.10;66.40;;;;;;5035418;28;20671;-66
2023/09/02 10:09:56;;;;;;;1.27;1.20;;;39.20;65.50;;;;;;5035393;28;20427;-67
2023/09/02 10:12:22;;;;;;;1.60;1.50;;;39.00;65.80;;;;;;5035542;28;20452;-66
2023/09/02 10:14:50;;;;;;;1.30;1.30;;;38.70;66.30;;;;;;5034869;28;20417;-66
2023/09/02 10:17:17;;;;;;;1.43;1.33;;;38.70;63.60;;;;;;5034983;28;20443;-68
2023/09/02 10:19:44;;;;;;;1.40;1.30;;;38.70;63.50;;;;;;5034672;28;20401;-67
2023/09/02 10:22:21;;;;;;;1.50;1.40;;;38.20;65.50;;;;;;5035204;28;20405;-65
2023/09/02 10:24:58;;;;;;;1.43;1.33;;;37.80;66.20;;;;;;5033940;28;20539;-64
2023/09/02 10:27:25;;;;;;;1.80;1.70;;;37.90;66.80;;;;;;5034970;28;20976;-63
2023/09/02 10:29:56;;;;;;;1.13;1.10;;;37.80;66.90;;;;;;5017302;28;20927;-62
2023/09/02 10:32:34;;;;;;;1.40;1.30;;;37.30;66.10;;;;;;5034977;28;20487;-63
2023/09/02 10:35:18;;;;;;;1.40;1.30;;;36.90;67.90;;;;;;5033893;28;20440;-65
2023/09/02 10:37:50;;;;;;;1.40;1.30;;;36.90;68.60;;;;;;5035145;28;20413;-61
2023/09/02 10:40:21;;;;;;;1.20;1.20;;;36.80;68.90;;;;;;5016845;28;20451;-61
2023/09/02 10:42:49;;;;;;;1.33;0.97;;;36.80;68.00;;;;;;5034449;28;20433;-69
2023/09/02 10:45:18;;;;;;;1.30;1.20;;;36.70;67.80;;;;;;5034348;28;20946;-65
2023/09/02 10:47:45;;;;;;;1.57;1.47;;;36.70;67.60;;;;;;5034399;28;20504;-67
2023/09/02 10:50:12;;;;;;;1.23;1.13;;;36.50;66.10;;;;;;5034193;28;20919;-65
2023/09/02 10:52:38;;;;;;;2.20;1.07;;;36.50;66.30;;;;;;5034414;28;20461;-70
2023/09/02 10:55:10;;;;;;;1.03;1.03;;;36.20;64.90;;;;;;5033612;28;20528;-64
2023/09/02 10:57:54;;;;;;;1.40;1.30;;;36.00;64.80;;;;;;5034730;28;20261;-62
2023/09/02 11:00:27;;;;;;;0.83;0.80;;;35.70;66.10;;;;;;5034333;28;20448;-66
2023/09/02 11:02:57;;;;;;;1.60;1.00;;;35.60;66.20;;;;;;5030843;28;20445;-65
2023/09/02 11:05:27;;;;;;;1.20;1.10;;;35.50;65.30;;;;;;5033939;28;20475;-63
2023/09/02 11:07:54;;;;;;;0.90;0.90;;;35.30;66.20;;;;;;5034080;28;20460;-63
2023/09/02 11:10:21;;;;;;;1.17;1.17;;;34.80;66.50;;;;;;5034392;28;20488;-69
2023/09/02 11:13:04;;;;;;;1.37;1.00;;;34.30;67.00;;;;;;5033885;28;20448;-66
2023/09/02 11:15:31;;;;;;;0.87;0.87;;;33.40;68.30;;;;;;5032902;28;20468;-66
2023/09/02 11:17:57;;;;;;;0.70;0.70;;;32.30;72.40;;;;;;5032710;28;20383;-66
2023/09/02 11:20:25;;;;;;;1.57;0.93;;;31.30;73.60;;;;;;5033443;28;20471;-64
2023/09/02 11:23:01;;;;;;;0.83;0.83;;;30.60;75.10;;;;;;5033437;28;20201;-67
2023/09/02 11:25:41;;;;;;;1.23;1.10;;;29.90;76.20;;;;;;5030366;28;20778;-63
2023/09/02 11:28:13;;;;;;;1.07;1.00;;;29.30;77.20;;;;;;5032326;28;20463;-63
2023/09/02 11:30:39;;;;;;;1.10;1.00;;;28.90;78.20;;;;;;5030613;28;20428;-64
2023/09/02 11:33:06;;;;;;;1.67;1.10;;;28.60;80.00;;;;;;5033676;28;20466;-64
2023/09/02 11:35:34;;;;;;;1.00;1.00;;;28.30;80.30;;;;;;5032720;28;20411;-64
2023/09/02 11:38:00;;;;;;;1.13;0.83;;;28.10;81.10;;;;;;5032984;28;20503;-60
2023/09/02 11:40:27;;;;;;;0.83;0.83;;;28.00;86.70;;;;;;5033824;28;20421;-62
2023/09/02 11:43:00;;;;;;;1.10;0.80;;;27.90;86.60;;;;;;5033435;28;20903;-63
2023/09/02 11:45:34;;;;;;;1.00;1.00;;;27.90;84.60;;;;;;5033176;28;20404;-64
2023/09/02 11:48:01;;;;;;;0.87;0.87;;;27.90;84.10;;;;;;5032078;28;20387;-65
2023/09/02 11:50:27;;;;;;;1.57;1.23;;;27.80;84.10;;;;;;5033378;28;20404;-65
2023/09/02 11:52:54;;;;;;;1.23;1.13;;;27.80;84.50;;;;;;5032123;28;20555;-64
2023/09/02 11:55:20;;;;;;;1.60;1.50;;;27.90;85.20;;;;;;5033144;28;20185;-64
2023/09/02 11:57:46;;;;;;;1.10;1.00;;;27.90;85.70;;;;;;5033142;28;20432;-65
2023/09/02 12:00:20;;;;;;;1.70;0.90;;;28.00;85.00;;;;;;5033606;28;20198;-61
2023/09/02 12:02:47;;;;;;;1.03;0.90;;;28.00;84.80;;;;;;5033848;28;20401;-62
2023/09/02 12:05:13;;;;;;;0.93;0.93;;;28.00;86.40;;;;;;5033222;28;20443;-64
2023/09/02 12:07:43;;;;;;;1.17;0.97;;;28.00;84.60;;;;;;5033209;28;20469;-61
2023/09/02 12:10:10;;;;;;;0.83;0.83;;;28.00;84.20;;;;;;5033554;28;20749;-65
2023/09/02 12:12:44;;;;;;;1.20;1.10;;;27.90;84.60;;;;;;5033455;28;20457;-64
2023/09/02 12:15:15;;;;;;;0.73;0.70;;;28.00;83.80;;;;;;5032992;28;20455;-63
2023/09/02 12:17:41;;;;;;;1.37;1.30;;;27.90;84.30;;;;;;5033467;28;20887;-64
2023/09/02 12:20:12;;;;;;;1.00;0.90;;;27.80;85.20;;;;;;5033467;28;20370;-64
2023/09/02 12:22:38;;;;;;;1.07;0.80;;;27.70;84.80;;;;;;5015217;28;20444;-65
2023/09/02 12:25:23;;;;;;;0.80;0.80;;;27.70;84.80;;;;;;5032602;28;20445;-62
2023/09/02 12:27:50;;;;;;;0.67;0.67;;;27.70;83.80;;;;;;5033429;28;20460;-65
2023/09/02 12:30:33;;;;;;;1.33;1.10;;;27.80;87.50;;;;;;5015039;28;20508;-62
2023/09/02 12:32:58;;;;;;;1.70;0.80;;;27.80;85.80;;;;;;5015325;28;20430;-64
2023/09/02 12:35:24;;;;;;;1.10;0.97;;;27.70;85.00;;;;;;5032619;28;20440;-65
2023/09/02 12:38:20;;;;;;;1.27;0.80;;;27.70;85.20;;;;;;5032835;28;20271;-63
2023/09/02 12:40:53;;;;;;;1.00;1.00;;;27.70;86.40;;;;;;5016323;28;20991;-65
2023/09/02 12:43:28;;;;;;;0.80;0.80;;;27.70;87.80;;;;;;5033210;28;20414;-65
2023/09/02 12:45:55;;;;;;;1.20;1.07;;;27.70;88.30;;;;;;5032702;28;20482;-64
2023/09/02 12:48:21;;;;;;;0.70;0.70;;;27.70;86.70;;;;;;5032294;28;20426;-62
2023/09/02 12:50:47;;;;;;;1.63;1.23;;;27.70;88.60;;;;;;5033107;28;20447;-65
2023/09/02 12:53:13;;;;;;;0.97;0.97;;;27.70;88.70;;;;;;5032746;28;20207;-65
2023/09/02 12:55:43;;;;;;;0.90;0.77;;;27.80;88.90;;;;;;5032427;28;20202;-61
2023/09/02 12:58:09;;;;;;;0.70;0.70;;;27.90;89.30;;;;;;5034542;28;20435;-63
2023/09/02 13:00:36;;;;;;;0.90;0.90;;;28.00;86.30;;;;;;5036898;28;20375;-64
2023/09/02 13:03:03;;;;;;;1.20;1.00;;;28.00;87.80;;;;;;5036771;28;20423;-65
2023/09/02 13:05:28;;;;;;;0.77;0.77;;;28.00;87.20;;;;;;5036400;28;20455;-62
2023/09/02 13:07:54;;;;;;;0.93;0.93;;;27.90;86.20;;;;;;5036803;28;20503;-62
2023/09/02 13:10:20;;;;;;;1.20;1.10;;;27.90;85.40;;;;;;5036625;28;20243;-65
2023/09/02 13:12:46;;;;;;;1.03;0.97;;;27.90;86.60;;;;;;5018941;28;20678;-63
2023/09/02 13:15:13;;;;;;;1.47;1.37;;;27.80;86.60;;;;;;5036152;28;20549;-64
2023/09/02 13:17:39;;;;;;;1.10;1.00;;;27.80;88.50;;;;;;5036548;28;20388;-62
2023/09/02 13:20:05;;;;;;;0.70;0.70;;;27.70;86.20;;;;;;5036548;28;20393;-65
2023/09/02 13:22:36;;;;;;;1.07;1.07;;;27.70;85.70;;;;;;5036346;28;20255;-61
2023/09/02 13:25:03;;;;;;;0.70;0.70;;;27.50;86.40;;;;;;5018026;28;20430;-65
2023/09/02 13:27:29;;;;;;;0.80;0.80;;;27.40;88.40;;;;;;5036564;28;20514;-66
2023/09/02 13:29:55;;;;;;;0.93;0.93;;;27.40;88.70;;;;;;5018341;28;20434;-62
2023/09/02 13:32:25;;;;;;;0.90;0.83;;;27.50;90.00;;;;;;5036160;28;20217;-63
2023/09/02 13:35:06;;;;;;;0.90;0.90;;;27.50;89.50;;;;;;5035351;28;20501;-62
2023/09/02 13:37:31;;;;;;;1.23;1.13;;;27.50;90.00;;;;;;5035954;28;21002;-64
2023/09/02 13:40:01;;;;;;;1.27;0.60;;;27.50;88.10;;;;;;5036067;28;20406;-63
2023/09/02 13:42:27;;;;;;;1.17;1.07;;;27.50;88.30;;;;;;5035999;28;20540;-62
2023/09/02 13:45:29;;;;;;;0.73;0.73;;;27.50;87.90;;;;;;5035577;28;20409;-62
2023/09/02 13:47:55;;;;;;;0.97;0.97;;;27.50;87.60;;;;;;5035821;28;20421;-64
2023/09/02 13:50:21;;;;;;;2.67;1.30;;;27.40;87.80;;;;;;5035829;28;20446;-61
2023/09/02 13:52:52;;;;;;;0.80;0.80;;;27.40;87.90;;;;;;5035247;28;20444;-62
2023/09/02 13:55:19;;;;;;;0.80;0.70;;;27.30;88.20;;;;;;5035150;28;20552;-62
2023/09/02 13:57:45;;;;;;;0.97;0.97;;;27.30;88.90;;;;;;5035924;28;20755;-60
2023/09/02 14:00:38;;;;;;;0.80;0.80;;;27.20;89.00;;;;;;5035706;28;20414;-65
2023/09/02 14:03:08;;;;;;;1.30;1.00;;;27.20;88.70;;;;;;5025255;28;20282;-65
2023/09/02 14:05:36;;;;;;;1.07;1.03;;;27.20;89.80;;;;;;5035055;28;20457;-63
2023/09/02 14:08:03;;;;;;;1.03;1.03;;;27.20;89.00;;;;;;5035355;28;20462;-61
2023/09/02 14:10:32;;;;;;;1.43;1.10;;;27.10;89.60;;;;;;5034741;28;20836;-63
2023/09/02 14:13:08;;;;;;;1.83;0.93;;;27.10;90.00;;;;;;5035259;28;20500;-62
2023/09/02 14:15:34;;;;;;;0.80;0.80;;;27.10;90.20;;;;;;5034920;28;20430;-62
2023/09/02 14:18:00;;;;;;;1.10;1.10;;;27.10;91.20;;;;;;5035041;28;20451;-62
2023/09/02 14:20:26;;;;;;;1.20;1.10;;;27.10;90.30;;;;;;5017544;28;20385;-64
2023/09/02 14:22:51;;;;;;;1.27;0.90;;;27.10;90.60;;;;;;5035078;28;20187;-62
2023/09/02 14:25:17;;;;;;;0.77;0.77;;;27.10;90.40;;;;;;5034722;28;20677;-64
2023/09/02 14:27:42;;;;;;;1.40;1.00;;;27.10;90.30;;;;;;5034499;28;20180;-66
2023/09/02 14:30:08;;;;;;;1.10;1.00;;;27.10;90.10;;;;;;5034679;28;20189;-63
2023/09/02 14:32:34;;;;;;;0.73;0.73;;;27.10;89.80;;;;;;5035097;28;20202;-61
2023/09/02 14:34:59;;;;;;;0.70;0.70;;;27.00;89.80;;;;;;5034546;28;20501;-62
2023/09/02 14:37:29;;;;;;;1.27;1.17;;;27.00;90.00;;;;;;5034844;28;20182;-62
2023/09/02 14:39:54;;;;;;;1.07;1.07;;;26.90;90.00;;;;;;5035157;28;20171;-62
2023/09/02 14:42:20;;;;;;;0.80;0.80;;;26.80;90.90;;;;;;5034533;28;20396;-64
2023/09/02 14:44:46;;;;;;;1.73;1.63;;;26.70;91.10;;;;;;5034699;28;20667;-62
2023/09/02 14:47:11;;;;;;;1.60;1.10;;;26.70;91.20;;;;;;5034914;28;20531;-62
2023/09/02 14:49:37;;;;;;;0.90;0.90;;;26.70;91.40;;;;;;5034539;28;20518;-65
2023/09/02 14:52:03;;;;;;;1.43;1.33;;;26.70;91.30;;;;;;5034762;28;20183;-64
2023/09/02 14:54:42;;;;;;;1.43;1.20;;;26.70;91.80;;;;;;5034273;28;20202;-63
2023/09/02 14:57:08;;;;;;;1.30;0.87;;;26.70;91.60;;;;;;5034442;28;20596;-62
2023/09/02 14:59:33;;;;;;;0.97;0.80;;;26.80;91.20;;;;;;5034376;28;20540;-65
2023/09/02 15:01:59;;;;;;;0.97;0.97;;;26.80;91.40;;;;;;5034573;28;20494;-65
2023/09/02 15:04:25;;;;;;;0.70;0.70;;;26.80;91.70;;;;;;5033929;28;20268;-65
2023/09/02 15:06:51;;;;;;;1.10;1.00;;;26.80;91.90;;;;;;5034313;28;20196;-64
2023/09/02 15:09:29;;;;;;;0.93;0.80;;;26.80;91.80;;;;;;5034258;28;20212;-63
2023/09/02 15:11:55;;;;;;;1.10;1.10;;;26.80;91.60;;;;;;5033847;28;20503;-63
2023/09/02 15:14:22;;;;;;;0.90;0.90;;;26.90;91.70;;;;;;5033247;28;20527;-62
2023/09/02 15:16:47;;;;;;;1.30;1.20;;;26.80;91.20;;;;;;5034328;28;20409;-63
2023/09/02 15:19:15;;;;;;;1.20;1.10;;;26.80;91.50;;;;;;5034018;28;20425;-63
2023/09/02 15:21:40;;;;;;;1.10;1.00;;;26.80;91.50;;;;;;5034094;28;20171;-62
2023/09/02 15:24:07;;;;;;;1.00;1.00;;;26.80;91.50;;;;;;5033624;28;20894;-63
2023/09/02 15:26:38;;;;;;;1.03;0.93;;;26.70;91.60;;;;;;5033353;28;20638;-62
2023/09/02 15:29:14;;;;;;;0.70;0.70;;;26.60;92.00;;;;;;5033890;28;20388;-63
2023/09/02 15:31:44;;;;;;;0.80;0.80;;;26.50;92.00;;;;;;5033921;28;20367;-61
2023/09/02 15:34:10;;;;;;;0.90;0.90;;;26.50;92.20;;;;;;5033408;28;20599;-62
2023/09/02 15:36:37;;;;;;;0.80;0.80;;;26.40;92.30;;;;;;5033844;28;20508;-64
2023/09/02 15:39:07;;;;;;;2.40;1.00;;;26.40;92.30;;;;;;5033627;28;20592;-61
2023/09/02 15:41:33;;;;;;;1.23;1.23;;;26.40;92.40;;;;;;5033630;28;20447;-62
2023/09/02 15:43:58;;;;;;;0.70;0.70;;;26.40;92.70;;;;;;5033464;28;20759;-62
2023/09/02 15:46:24;;;;;;;1.00;0.97;;;26.40;92.80;;;;;;5033688;28;20198;-64
2023/09/02 15:48:50;;;;;;;1.43;1.20;;;26.40;92.80;;;;;;5033932;28;20177;-65
2023/09/02 15:51:18;;;;;;;1.30;1.20;;;26.40;93.00;;;;;;5033061;28;20533;-62
2023/09/02 15:53:44;;;;;;;1.40;1.30;;;26.40;92.90;;;;;;5033119;28;20427;-63
2023/09/02 15:56:10;;;;;;;1.43;1.33;;;26.40;93.30;;;;;;5033252;28;20438;-61
2023/09/02 15:58:35;;;;;;;1.17;1.13;;;26.40;93.30;;;;;;5033440;28;20372;-61
2023/09/02 16:01:01;;;;;;;1.20;1.00;;;26.30;93.80;;;;;;5033632;28;20214;-62
2023/09/02 16:03:27;;;;;;;1.57;1.43;;;26.30;93.60;;;;;;5033147;28;20571;-63
2023/09/02 16:05:52;;;;;;;0.80;0.80;;;26.30;93.20;;;;;;5032358;28;20225;-63
2023/09/02 16:08:18;;;;;;;1.43;1.30;;;26.30;93.20;;;;;;5033303;28;20660;-64
2023/09/02 16:10:43;;;;;;;1.80;1.30;;;26.30;93.60;;;;;;5033408;28;20182;-62
2023/09/02 16:13:09;;;;;;;1.20;1.10;;;26.30;93.90;;;;;;5033367;28;20202;-64
2023/09/02 16:15:35;;;;;;;1.67;1.57;;;26.20;93.90;;;;;;5032851;28;20186;-65
2023/09/02 16:18:00;;;;;;;0.87;0.80;;;26.20;94.10;;;;;;5033419;28;20209;-63
2023/09/02 16:20:26;;;;;;;2.87;1.33;;;26.10;94.40;;;;;;5033482;28;20509;-64
2023/09/02 16:22:51;;;;;;;1.27;1.20;;;26.10;94.50;;;;;;5033263;28;20178;-62
2023/09/02 16:25:17;;;;;;;1.20;1.20;;;26.10;94.20;;;;;;5032421;28;20542;-65
2023/09/02 16:27:43;;;;;;;0.97;0.97;;;26.10;94.20;;;;;;5033249;28;20276;-64
2023/09/02 16:30:10;;;;;;;1.07;0.90;;;26.00;94.30;;;;;;5033310;28;20220;-61
2023/09/02 16:32:36;;;;;;;0.83;0.83;;;26.00;94.10;;;;;;5032972;28;20197;-64
2023/09/02 16:35:01;;;;;;;1.23;1.13;;;26.00;94.00;;;;;;5036766;28;20811;-61
2023/09/02 16:37:28;;;;;;;0.90;0.87;;;26.00;94.10;;;;;;5036893;28;20458;-62
2023/09/02 16:39:58;;;;;;;1.13;0.90;;;26.00;94.40;;;;;;5037211;28;20591;-66
2023/09/02 16:42:26;;;;;;;1.07;1.07;;;25.90;94.50;;;;;;5036365;28;20399;-65
2023/09/02 16:44:55;;;;;;;1.50;1.40;;;25.90;94.40;;;;;;5036267;28;20815;-63
2023/09/02 16:47:23;;;;;;;1.47;1.20;;;25.80;94.50;;;;;;5037197;28;20471;-62
2023/09/02 16:49:51;;;;;;;1.00;1.00;;;25.80;94.70;;;;;;5036623;28;20843;-65
2023/09/02 16:52:18;;;;;;;1.37;1.30;;;25.70;94.40;;;;;;5036355;28;20402;-64
2023/09/02 16:54:43;;;;;;;1.03;1.00;;;25.70;94.50;;;;;;5018662;28;20435;-63